sensor_id;sensor_type;location;lat;lon;timestamp;P1;durP1;ratioP1;P2;durP2;ratioP2
1412;SDS011;701;52.526;13.408;2022-12-29T00:01:26;6.40;;;1.70;;
1412;SDS011;701;52.526;13.408;2022-12-29T00:03:52;5.75;;;1.88;;
1412;SDS011;701;52.526;13.408;2022-12-29T00:06:17;6.57;;;1.70;;
1412;SDS011;701;52.526;13.408;2022-12-29T00:08:43;8.27;;;2.00;;
1412;SDS011;701;52.526;13.408;2022-12-29T00:11:10;6.22;;;2.08;;
1412;SDS011;701;52.526;13.408;2022-12-29T00:13:37;5.27;;;2.10;;
1412;SDS011;701;52.526;13.408;2022-12-29T00:16:22;5.38;;;1.88;;
1412;SDS011;701;52.526;13.408;2022-12-29T00:18:48;6.30;;;2.20;;
1412;SDS011;701;52.526;13.408;2022-12-29T00:21:15;5.80;;;1.90;;
1412;SDS011;701;52.526;13.408;2022-12-29T00:24:00;6.00;;;1.90;;
1412;SDS011;701;52.526;13.408;2022-12-29T00:26:45;5.45;;;2.08;;
1412;SDS011;701;52.526;13.408;2022-12-29T00:29:54;5.38;;;2.15;;
1412;SDS011;701;52.526;13.408;2022-12-29T00:32:56;6.35;;;1.85;;
1412;SDS011;701;52.526;13.408;2022-12-29T00:35:53;5.93;;;1.98;;
1412;SDS011;701;52.526;13.408;2022-12-29T00:38:23;5.53;;;1.75;;
1412;SDS011;701;52.526;13.408;2022-12-29T00:41:07;5.82;;;1.90;;
1412;SDS011;701;52.526;13.408;2022-12-29T00:43:51;5.22;;;2.03;;
1412;SDS011;701;52.526;13.408;2022-12-29T00:46:38;4.72;;;1.50;;
1412;SDS011;701;52.526;13.408;2022-12-29T00:49:05;5.30;;;1.70;;
1412;SDS011;701;52.526;13.408;2022-12-29T00:51:57;5.25;;;1.95;;
1412;SDS011;701;52.526;13.408;2022-12-29T00:54:34;5.55;;;1.80;;
1412;SDS011;701;52.526;13.408;2022-12-29T00:57:01;6.05;;;2.00;;
1412;SDS011;701;52.526;13.408;2022-12-29T00:59:29;5.18;;;2.10;;
1412;SDS011;701;52.526;13.408;2022-12-29T01:01:56;5.15;;;1.98;;
1412;SDS011;701;52.526;13.408;2022-12-29T01:04:23;5.05;;;1.80;;
1412;SDS011;701;52.526;13.408;2022-12-29T01:06:50;4.97;;;1.60;;
1412;SDS011;701;52.526;13.408;2022-12-29T01:09:16;6.38;;;1.83;;
1412;SDS011;701;52.526;13.408;2022-12-29T01:12:01;5.03;;;1.90;;
1412;SDS011;701;52.526;13.408;2022-12-29T01:14:28;4.57;;;1.50;;
1412;SDS011;701;52.526;13.408;2022-12-29T01:16:54;7.60;;;1.73;;
1412;SDS011;701;52.526;13.408;2022-12-29T01:19:21;6.40;;;1.88;;
1412;SDS011;701;52.526;13.408;2022-12-29T01:21:47;4.57;;;1.60;;
1412;SDS011;701;52.526;13.408;2022-12-29T01:24:14;4.10;;;1.53;;
1412;SDS011;701;52.526;13.408;2022-12-29T01:26:41;4.75;;;1.77;;
1412;SDS011;701;52.526;13.408;2022-12-29T01:29:06;5.95;;;1.90;;
1412;SDS011;701;52.526;13.408;2022-12-29T01:31:32;4.70;;;1.60;;
1412;SDS011;701;52.526;13.408;2022-12-29T01:33:58;5.45;;;1.70;;
1412;SDS011;701;52.526;13.408;2022-12-29T01:36:24;5.05;;;1.48;;
1412;SDS011;701;52.526;13.408;2022-12-29T01:38:50;4.97;;;1.70;;
1412;SDS011;701;52.526;13.408;2022-12-29T01:41:16;4.50;;;1.60;;
1412;SDS011;701;52.526;13.408;2022-12-29T01:43:50;4.75;;;1.67;;
1412;SDS011;701;52.526;13.408;2022-12-29T01:48:55;6.05;;;1.75;;
1412;SDS011;701;52.526;13.408;2022-12-29T01:51:33;6.03;;;1.90;;
1412;SDS011;701;52.526;13.408;2022-12-29T01:54:04;7.78;;;1.90;;
1412;SDS011;701;52.526;13.408;2022-12-29T01:56:34;5.53;;;1.83;;
1412;SDS011;701;52.526;13.408;2022-12-29T01:59:02;5.45;;;1.70;;
1412;SDS011;701;52.526;13.408;2022-12-29T02:01:31;4.70;;;1.98;;
1412;SDS011;701;52.526;13.408;2022-12-29T02:03:59;4.75;;;1.60;;
1412;SDS011;701;52.526;13.408;2022-12-29T02:06:28;4.45;;;1.80;;
1412;SDS011;701;52.526;13.408;2022-12-29T02:09:02;4.10;;;1.38;;
1412;SDS011;701;52.526;13.408;2022-12-29T02:11:28;6.40;;;1.93;;
1412;SDS011;701;52.526;13.408;2022-12-29T02:13:55;4.70;;;1.63;;
1412;SDS011;701;52.526;13.408;2022-12-29T02:17:05;6.05;;;1.77;;
1412;SDS011;701;52.526;13.408;2022-12-29T02:30:58;4.38;;;1.55;;
1412;SDS011;701;52.526;13.408;2022-12-29T02:39:38;4.65;;;1.73;;
1412;SDS011;701;52.526;13.408;2022-12-29T02:41:58;4.68;;;1.77;;
1412;SDS011;701;52.526;13.408;2022-12-29T02:44:55;5.38;;;1.50;;
1412;SDS011;701;52.526;13.408;2022-12-29T02:50:03;5.93;;;1.40;;
1412;SDS011;701;52.526;13.408;2022-12-29T02:53:07;4.20;;;1.40;;
1412;SDS011;701;52.526;13.408;2022-12-29T02:55:34;5.25;;;1.88;;
1412;SDS011;701;52.526;13.408;2022-12-29T03:00:44;4.22;;;1.40;;
1412;SDS011;701;52.526;13.408;2022-12-29T03:03:35;4.47;;;1.67;;
1412;SDS011;701;52.526;13.408;2022-12-29T03:06:14;6.20;;;1.50;;
1412;SDS011;701;52.526;13.408;2022-12-29T03:08:55;7.70;;;1.92;;
1412;SDS011;701;52.526;13.408;2022-12-29T03:11:35;6.32;;;1.40;;
1412;SDS011;701;52.526;13.408;2022-12-29T03:14:32;6.88;;;1.40;;
1412;SDS011;701;52.526;13.408;2022-12-29T03:17:42;4.77;;;1.77;;
1412;SDS011;701;52.526;13.408;2022-12-29T03:20:26;4.45;;;1.60;;
1412;SDS011;701;52.526;13.408;2022-12-29T03:23:02;5.15;;;1.60;;
1412;SDS011;701;52.526;13.408;2022-12-29T03:25:39;4.90;;;1.70;;
1412;SDS011;701;52.526;13.408;2022-12-29T03:28:11;5.55;;;1.60;;
1412;SDS011;701;52.526;13.408;2022-12-29T03:30:44;6.33;;;1.50;;
1412;SDS011;701;52.526;13.408;2022-12-29T03:33:14;4.53;;;1.42;;
1412;SDS011;701;52.526;13.408;2022-12-29T03:35:44;4.45;;;1.65;;
1412;SDS011;701;52.526;13.408;2022-12-29T03:40:52;5.88;;;1.50;;
1412;SDS011;701;52.526;13.408;2022-12-29T03:43:21;4.73;;;1.40;;
1412;SDS011;701;52.526;13.408;2022-12-29T03:45:47;4.22;;;1.30;;
1412;SDS011;701;52.526;13.408;2022-12-29T03:48:13;5.38;;;1.55;;
1412;SDS011;701;52.526;13.408;2022-12-29T03:50:40;5.78;;;1.58;;
1412;SDS011;701;52.526;13.408;2022-12-29T03:53:06;5.13;;;1.63;;
1412;SDS011;701;52.526;13.408;2022-12-29T03:55:32;4.78;;;1.70;;
1412;SDS011;701;52.526;13.408;2022-12-29T03:57:58;5.50;;;1.92;;
1412;SDS011;701;52.526;13.408;2022-12-29T04:00:38;6.05;;;1.73;;
1412;SDS011;701;52.526;13.408;2022-12-29T04:03:04;5.13;;;1.60;;
1412;SDS011;701;52.526;13.408;2022-12-29T04:05:29;4.13;;;1.60;;
1412;SDS011;701;52.526;13.408;2022-12-29T04:07:56;6.03;;;1.60;;
1412;SDS011;701;52.526;13.408;2022-12-29T04:10:22;5.65;;;1.40;;
1412;SDS011;701;52.526;13.408;2022-12-29T04:12:51;5.47;;;1.48;;
1412;SDS011;701;52.526;13.408;2022-12-29T04:15:17;5.50;;;1.60;;
1412;SDS011;701;52.526;13.408;2022-12-29T04:17:43;5.03;;;1.60;;
1412;SDS011;701;52.526;13.408;2022-12-29T04:20:09;4.80;;;1.50;;
1412;SDS011;701;52.526;13.408;2022-12-29T04:23:05;5.10;;;1.70;;
1412;SDS011;701;52.526;13.408;2022-12-29T04:25:33;4.38;;;1.50;;
1412;SDS011;701;52.526;13.408;2022-12-29T04:27:59;4.50;;;1.40;;
1412;SDS011;701;52.526;13.408;2022-12-29T04:30:51;7.18;;;1.77;;
1412;SDS011;701;52.526;13.408;2022-12-29T04:33:39;5.18;;;1.70;;
1412;SDS011;701;52.526;13.408;2022-12-29T04:36:05;6.35;;;1.92;;
1412;SDS011;701;52.526;13.408;2022-12-29T04:38:31;4.00;;;1.38;;
1412;SDS011;701;52.526;13.408;2022-12-29T04:40:59;5.68;;;1.52;;
1412;SDS011;701;52.526;13.408;2022-12-29T04:43:26;4.65;;;1.30;;
1412;SDS011;701;52.526;13.408;2022-12-29T04:46:15;5.30;;;1.60;;
1412;SDS011;701;52.526;13.408;2022-12-29T04:49:01;9.35;;;1.50;;
1412;SDS011;701;52.526;13.408;2022-12-29T04:51:53;4.60;;;1.55;;
1412;SDS011;701;52.526;13.408;2022-12-29T04:54:19;4.63;;;1.60;;
1412;SDS011;701;52.526;13.408;2022-12-29T04:56:52;4.03;;;1.52;;
1412;SDS011;701;52.526;13.408;2022-12-29T04:59:18;7.03;;;1.80;;
1412;SDS011;701;52.526;13.408;2022-12-29T05:01:47;6.95;;;1.60;;
1412;SDS011;701;52.526;13.408;2022-12-29T05:04:13;4.63;;;1.75;;
1412;SDS011;701;52.526;13.408;2022-12-29T05:06:40;6.63;;;1.52;;
1412;SDS011;701;52.526;13.408;2022-12-29T05:09:06;5.55;;;1.73;;
1412;SDS011;701;52.526;13.408;2022-12-29T05:11:33;5.88;;;1.58;;
1412;SDS011;701;52.526;13.408;2022-12-29T05:13:59;4.72;;;1.67;;
1412;SDS011;701;52.526;13.408;2022-12-29T05:16:25;4.20;;;1.60;;
1412;SDS011;701;52.526;13.408;2022-12-29T05:18:51;4.20;;;1.45;;
1412;SDS011;701;52.526;13.408;2022-12-29T05:21:17;4.00;;;1.40;;
1412;SDS011;701;52.526;13.408;2022-12-29T05:23:43;6.60;;;1.58;;
1412;SDS011;701;52.526;13.408;2022-12-29T05:26:09;5.43;;;1.60;;
1412;SDS011;701;52.526;13.408;2022-12-29T05:28:55;4.45;;;1.67;;
1412;SDS011;701;52.526;13.408;2022-12-29T05:31:21;5.07;;;1.60;;
1412;SDS011;701;52.526;13.408;2022-12-29T05:33:47;5.07;;;1.60;;
1412;SDS011;701;52.526;13.408;2022-12-29T05:36:13;4.80;;;1.83;;
1412;SDS011;701;52.526;13.408;2022-12-29T05:38:43;5.03;;;1.70;;
1412;SDS011;701;52.526;13.408;2022-12-29T05:41:10;5.00;;;1.70;;
1412;SDS011;701;52.526;13.408;2022-12-29T05:43:50;4.38;;;1.58;;
1412;SDS011;701;52.526;13.408;2022-12-29T05:46:42;5.38;;;1.63;;
1412;SDS011;701;52.526;13.408;2022-12-29T05:49:16;4.30;;;1.55;;
1412;SDS011;701;52.526;13.408;2022-12-29T05:51:55;4.60;;;1.60;;
1412;SDS011;701;52.526;13.408;2022-12-29T05:54:21;8.48;;;1.75;;
1412;SDS011;701;52.526;13.408;2022-12-29T05:56:47;5.32;;;1.50;;
1412;SDS011;701;52.526;13.408;2022-12-29T05:59:13;4.73;;;1.90;;
1412;SDS011;701;52.526;13.408;2022-12-29T06:01:39;4.57;;;1.70;;
1412;SDS011;701;52.526;13.408;2022-12-29T06:04:05;5.05;;;1.70;;
1412;SDS011;701;52.526;13.408;2022-12-29T06:06:30;4.20;;;1.50;;
1412;SDS011;701;52.526;13.408;2022-12-29T06:08:57;4.35;;;1.45;;
1412;SDS011;701;52.526;13.408;2022-12-29T06:11:22;4.70;;;1.30;;
1412;SDS011;701;52.526;13.408;2022-12-29T06:13:52;5.50;;;1.47;;
1412;SDS011;701;52.526;13.408;2022-12-29T06:16:18;4.68;;;1.60;;
1412;SDS011;701;52.526;13.408;2022-12-29T06:18:44;6.50;;;1.90;;
1412;SDS011;701;52.526;13.408;2022-12-29T06:21:10;6.07;;;2.03;;
1412;SDS011;701;52.526;13.408;2022-12-29T06:23:36;4.57;;;1.50;;
1412;SDS011;701;52.526;13.408;2022-12-29T06:26:03;4.72;;;1.50;;
1412;SDS011;701;52.526;13.408;2022-12-29T06:28:28;4.37;;;1.53;;
1412;SDS011;701;52.526;13.408;2022-12-29T06:30:54;4.93;;;1.77;;
1412;SDS011;701;52.526;13.408;2022-12-29T06:33:20;5.05;;;1.52;;
1412;SDS011;701;52.526;13.408;2022-12-29T06:35:46;5.65;;;1.52;;
1412;SDS011;701;52.526;13.408;2022-12-29T06:38:13;5.82;;;1.50;;
1412;SDS011;701;52.526;13.408;2022-12-29T06:40:39;7.07;;;1.70;;
1412;SDS011;701;52.526;13.408;2022-12-29T06:43:09;4.43;;;1.73;;
1412;SDS011;701;52.526;13.408;2022-12-29T06:45:55;5.85;;;1.67;;
1412;SDS011;701;52.526;13.408;2022-12-29T06:48:21;5.15;;;1.63;;
1412;SDS011;701;52.526;13.408;2022-12-29T06:50:47;5.20;;;1.30;;
1412;SDS011;701;52.526;13.408;2022-12-29T06:53:12;9.40;;;2.13;;
1412;SDS011;701;52.526;13.408;2022-12-29T06:55:38;4.70;;;1.50;;
1412;SDS011;701;52.526;13.408;2022-12-29T06:58:04;6.22;;;1.40;;
1412;SDS011;701;52.526;13.408;2022-12-29T07:00:30;4.72;;;1.40;;
1412;SDS011;701;52.526;13.408;2022-12-29T07:02:56;5.93;;;1.50;;
1412;SDS011;701;52.526;13.408;2022-12-29T07:05:25;5.55;;;1.50;;
1412;SDS011;701;52.526;13.408;2022-12-29T07:07:53;4.85;;;1.52;;
1412;SDS011;701;52.526;13.408;2022-12-29T07:10:21;5.15;;;1.52;;
1412;SDS011;701;52.526;13.408;2022-12-29T07:12:48;4.27;;;1.53;;
1412;SDS011;701;52.526;13.408;2022-12-29T07:15:13;4.35;;;1.23;;
1412;SDS011;701;52.526;13.408;2022-12-29T07:17:39;4.03;;;1.33;;
1412;SDS011;701;52.526;13.408;2022-12-29T07:20:05;5.63;;;1.52;;
1412;SDS011;701;52.526;13.408;2022-12-29T07:22:32;4.68;;;1.92;;
1412;SDS011;701;52.526;13.408;2022-12-29T07:24:58;5.22;;;1.60;;
1412;SDS011;701;52.526;13.408;2022-12-29T07:27:23;6.63;;;1.67;;
1412;SDS011;701;52.526;13.408;2022-12-29T07:29:49;5.85;;;1.55;;
1412;SDS011;701;52.526;13.408;2022-12-29T07:32:15;4.30;;;1.43;;
1412;SDS011;701;52.526;13.408;2022-12-29T07:34:41;4.20;;;1.50;;
1412;SDS011;701;52.526;13.408;2022-12-29T07:37:06;4.80;;;1.50;;
1412;SDS011;701;52.526;13.408;2022-12-29T07:39:32;5.32;;;1.58;;
1412;SDS011;701;52.526;13.408;2022-12-29T07:41:58;4.53;;;1.50;;
1412;SDS011;701;52.526;13.408;2022-12-29T07:44:25;5.55;;;1.50;;
1412;SDS011;701;52.526;13.408;2022-12-29T07:46:57;4.18;;;1.30;;
1412;SDS011;701;52.526;13.408;2022-12-29T07:49:23;4.43;;;1.30;;
1412;SDS011;701;52.526;13.408;2022-12-29T07:51:49;4.18;;;1.23;;
1412;SDS011;701;52.526;13.408;2022-12-29T07:54:15;5.22;;;1.63;;
1412;SDS011;701;52.526;13.408;2022-12-29T07:56:43;6.03;;;2.00;;
1412;SDS011;701;52.526;13.408;2022-12-29T07:59:09;5.65;;;1.42;;
1412;SDS011;701;52.526;13.408;2022-12-29T08:01:37;4.90;;;1.20;;
1412;SDS011;701;52.526;13.408;2022-12-29T08:04:03;4.47;;;1.50;;
1412;SDS011;701;52.526;13.408;2022-12-29T08:06:29;4.05;;;1.38;;
1412;SDS011;701;52.526;13.408;2022-12-29T08:08:55;4.17;;;1.23;;
1412;SDS011;701;52.526;13.408;2022-12-29T08:11:22;4.70;;;1.30;;
1412;SDS011;701;52.526;13.408;2022-12-29T08:13:48;4.68;;;1.20;;
1412;SDS011;701;52.526;13.408;2022-12-29T08:16:14;4.05;;;1.30;;
1412;SDS011;701;52.526;13.408;2022-12-29T08:18:40;6.93;;;1.70;;
1412;SDS011;701;52.526;13.408;2022-12-29T08:21:05;4.45;;;1.50;;
1412;SDS011;701;52.526;13.408;2022-12-29T08:23:31;5.45;;;1.48;;
1412;SDS011;701;52.526;13.408;2022-12-29T08:25:58;6.28;;;1.50;;
1412;SDS011;701;52.526;13.408;2022-12-29T08:28:24;4.03;;;1.40;;
1412;SDS011;701;52.526;13.408;2022-12-29T08:30:50;3.87;;;1.10;;
1412;SDS011;701;52.526;13.408;2022-12-29T08:33:16;5.05;;;1.30;;
1412;SDS011;701;52.526;13.408;2022-12-29T08:35:42;4.97;;;1.40;;
1412;SDS011;701;52.526;13.408;2022-12-29T08:38:08;4.20;;;1.07;;
1412;SDS011;701;52.526;13.408;2022-12-29T08:40:36;4.30;;;1.42;;
1412;SDS011;701;52.526;13.408;2022-12-29T08:43:02;4.97;;;1.40;;
1412;SDS011;701;52.526;13.408;2022-12-29T08:45:28;4.73;;;1.47;;
1412;SDS011;701;52.526;13.408;2022-12-29T08:47:53;4.68;;;1.48;;
1412;SDS011;701;52.526;13.408;2022-12-29T08:50:19;4.83;;;1.33;;
1412;SDS011;701;52.526;13.408;2022-12-29T08:52:45;4.60;;;1.48;;
1412;SDS011;701;52.526;13.408;2022-12-29T08:55:11;5.27;;;1.70;;
1412;SDS011;701;52.526;13.408;2022-12-29T08:57:36;4.18;;;1.35;;
1412;SDS011;701;52.526;13.408;2022-12-29T09:00:19;5.13;;;1.42;;
1412;SDS011;701;52.526;13.408;2022-12-29T09:02:45;5.05;;;1.42;;
1412;SDS011;701;52.526;13.408;2022-12-29T09:05:11;4.73;;;1.40;;
1412;SDS011;701;52.526;13.408;2022-12-29T09:07:38;4.05;;;1.30;;
1412;SDS011;701;52.526;13.408;2022-12-29T09:10:06;5.63;;;1.50;;
1412;SDS011;701;52.526;13.408;2022-12-29T09:12:32;4.82;;;1.40;;
1412;SDS011;701;52.526;13.408;2022-12-29T09:14:58;6.17;;;1.47;;
1412;SDS011;701;52.526;13.408;2022-12-29T09:17:24;6.30;;;1.52;;
1412;SDS011;701;52.526;13.408;2022-12-29T09:20:08;4.20;;;1.13;;
1412;SDS011;701;52.526;13.408;2022-12-29T09:22:35;5.72;;;1.25;;
1412;SDS011;701;52.526;13.408;2022-12-29T09:25:01;5.18;;;1.60;;
1412;SDS011;701;52.526;13.408;2022-12-29T09:27:27;8.70;;;1.50;;
1412;SDS011;701;52.526;13.408;2022-12-29T09:29:53;7.40;;;1.70;;
1412;SDS011;701;52.526;13.408;2022-12-29T09:32:19;5.05;;;1.50;;
1412;SDS011;701;52.526;13.408;2022-12-29T09:34:44;4.57;;;1.47;;
1412;SDS011;701;52.526;13.408;2022-12-29T09:37:10;3.88;;;1.20;;
1412;SDS011;701;52.526;13.408;2022-12-29T09:39:36;5.10;;;1.60;;
1412;SDS011;701;52.526;13.408;2022-12-29T09:42:08;4.57;;;1.30;;
1412;SDS011;701;52.526;13.408;2022-12-29T09:47:32;7.63;;;1.48;;
1412;SDS011;701;52.526;13.408;2022-12-29T09:52:49;6.80;;;2.15;;
1412;SDS011;701;52.526;13.408;2022-12-29T09:55:42;5.80;;;2.45;;
1412;SDS011;701;52.526;13.408;2022-12-29T09:58:14;6.67;;;2.67;;
1412;SDS011;701;52.526;13.408;2022-12-29T10:00:57;5.88;;;2.15;;
1412;SDS011;701;52.526;13.408;2022-12-29T10:03:29;6.53;;;2.00;;
1412;SDS011;701;52.526;13.408;2022-12-29T10:10:03;6.57;;;1.60;;
1412;SDS011;701;52.526;13.408;2022-12-29T10:25:25;4.50;;;1.60;;
1412;SDS011;701;52.526;13.408;2022-12-29T10:27:54;6.20;;;1.73;;
1412;SDS011;701;52.526;13.408;2022-12-29T10:30:23;6.28;;;2.45;;
1412;SDS011;701;52.526;13.408;2022-12-29T10:32:51;4.88;;;1.60;;
1412;SDS011;701;52.526;13.408;2022-12-29T10:35:23;4.82;;;1.52;;
1412;SDS011;701;52.526;13.408;2022-12-29T10:37:56;7.25;;;2.10;;
1412;SDS011;701;52.526;13.408;2022-12-29T10:40:40;5.97;;;2.05;;
1412;SDS011;701;52.526;13.408;2022-12-29T10:46:12;5.53;;;1.95;;
1412;SDS011;701;52.526;13.408;2022-12-29T10:48:48;5.70;;;1.70;;
1412;SDS011;701;52.526;13.408;2022-12-29T10:51:32;9.35;;;1.90;;
1412;SDS011;701;52.526;13.408;2022-12-29T10:54:14;5.85;;;1.50;;
1412;SDS011;701;52.526;13.408;2022-12-29T10:56:46;8.50;;;2.28;;
1412;SDS011;701;52.526;13.408;2022-12-29T10:59:22;6.13;;;2.27;;
1412;SDS011;701;52.526;13.408;2022-12-29T11:02:00;7.82;;;2.25;;
1412;SDS011;701;52.526;13.408;2022-12-29T11:06:56;4.85;;;1.77;;
1412;SDS011;701;52.526;13.408;2022-12-29T11:09:32;6.63;;;1.88;;
1412;SDS011;701;52.526;13.408;2022-12-29T11:12:05;4.87;;;1.60;;
1412;SDS011;701;52.526;13.408;2022-12-29T11:14:42;5.72;;;1.60;;
1412;SDS011;701;52.526;13.408;2022-12-29T11:17:09;7.32;;;1.30;;
1412;SDS011;701;52.526;13.408;2022-12-29T11:19:40;5.30;;;1.60;;
1412;SDS011;701;52.526;13.408;2022-12-29T11:24:43;4.72;;;1.30;;
1412;SDS011;701;52.526;13.408;2022-12-29T11:27:14;5.85;;;1.60;;
1412;SDS011;701;52.526;13.408;2022-12-29T11:29:42;5.73;;;1.70;;
1412;SDS011;701;52.526;13.408;2022-12-29T11:32:16;6.78;;;1.85;;
1412;SDS011;701;52.526;13.408;2022-12-29T11:34:44;5.85;;;1.20;;
1412;SDS011;701;52.526;13.408;2022-12-29T11:37:14;5.75;;;1.38;;
1412;SDS011;701;52.526;13.408;2022-12-29T11:45:15;5.45;;;1.30;;
1412;SDS011;701;52.526;13.408;2022-12-29T11:47:43;5.55;;;1.50;;
1412;SDS011;701;52.526;13.408;2022-12-29T11:50:17;5.72;;;1.67;;
1412;SDS011;701;52.526;13.408;2022-12-29T11:52:45;5.63;;;1.63;;
1412;SDS011;701;52.526;13.408;2022-12-29T11:55:17;6.17;;;1.80;;
1412;SDS011;701;52.526;13.408;2022-12-29T11:57:47;4.90;;;1.50;;
1412;SDS011;701;52.526;13.408;2022-12-29T12:02:42;4.60;;;1.40;;
1412;SDS011;701;52.526;13.408;2022-12-29T12:05:43;5.85;;;1.90;;
1412;SDS011;701;52.526;13.408;2022-12-29T12:10:46;4.00;;;1.58;;
1412;SDS011;701;52.526;13.408;2022-12-29T12:13:23;3.92;;;1.10;;
1412;SDS011;701;52.526;13.408;2022-12-29T12:15:57;4.00;;;1.27;;
1412;SDS011;701;52.526;13.408;2022-12-29T12:19:12;5.88;;;1.50;;
1412;SDS011;701;52.526;13.408;2022-12-29T12:21:31;4.10;;;1.17;;
1412;SDS011;701;52.526;13.408;2022-12-29T12:33:00;4.55;;;1.38;;
1412;SDS011;701;52.526;13.408;2022-12-29T12:44:28;4.90;;;1.20;;
1412;SDS011;701;52.526;13.408;2022-12-29T12:47:08;3.97;;;1.20;;
1412;SDS011;701;52.526;13.408;2022-12-29T12:58:16;5.75;;;1.60;;
1412;SDS011;701;52.526;13.408;2022-12-29T13:20:36;4.07;;;1.15;;
1412;SDS011;701;52.526;13.408;2022-12-29T13:23:17;4.45;;;1.30;;
1412;SDS011;701;52.526;13.408;2022-12-29T13:31:47;5.82;;;1.30;;
1412;SDS011;701;52.526;13.408;2022-12-29T13:36:55;4.90;;;1.20;;
1412;SDS011;701;52.526;13.408;2022-12-29T13:39:30;4.65;;;1.50;;
1412;SDS011;701;52.526;13.408;2022-12-29T13:42:01;7.82;;;2.00;;
1412;SDS011;701;52.526;13.408;2022-12-29T13:44:34;5.97;;;1.80;;
1412;SDS011;701;52.526;13.408;2022-12-29T13:47:13;4.50;;;1.42;;
1412;SDS011;701;52.526;13.408;2022-12-29T13:49:44;5.45;;;1.52;;
1412;SDS011;701;52.526;13.408;2022-12-29T13:58:53;9.52;;;1.95;;
1412;SDS011;701;52.526;13.408;2022-12-29T14:03:41;5.88;;;1.73;;
1412;SDS011;701;52.526;13.408;2022-12-29T14:06:19;6.65;;;1.77;;
1412;SDS011;701;52.526;13.408;2022-12-29T14:08:45;7.22;;;1.70;;
1412;SDS011;701;52.526;13.408;2022-12-29T14:11:14;4.70;;;1.70;;
1412;SDS011;701;52.526;13.408;2022-12-29T14:13:45;6.22;;;1.90;;
1412;SDS011;701;52.526;13.408;2022-12-29T14:16:31;5.57;;;1.63;;
1412;SDS011;701;52.526;13.408;2022-12-29T14:19:09;6.28;;;2.17;;
1412;SDS011;701;52.526;13.408;2022-12-29T14:22:02;6.88;;;2.70;;
1412;SDS011;701;52.526;13.408;2022-12-29T14:27:16;7.78;;;1.90;;
1412;SDS011;701;52.526;13.408;2022-12-29T14:29:50;15.02;;;2.42;;
1412;SDS011;701;52.526;13.408;2022-12-29T14:34:54;6.75;;;2.03;;
1412;SDS011;701;52.526;13.408;2022-12-29T14:37:28;9.55;;;2.30;;
1412;SDS011;701;52.526;13.408;2022-12-29T14:42:43;6.25;;;2.25;;
1412;SDS011;701;52.526;13.408;2022-12-29T14:47:40;6.13;;;2.03;;
1412;SDS011;701;52.526;13.408;2022-12-29T14:52:49;5.72;;;2.28;;
1412;SDS011;701;52.526;13.408;2022-12-29T14:57:53;7.17;;;2.27;;
1412;SDS011;701;52.526;13.408;2022-12-29T15:00:35;7.15;;;2.00;;
1412;SDS011;701;52.526;13.408;2022-12-29T15:03:06;9.02;;;2.50;;
1412;SDS011;701;52.526;13.408;2022-12-29T15:05:42;8.77;;;2.80;;
1412;SDS011;701;52.526;13.408;2022-12-29T15:08:12;7.88;;;2.67;;
1412;SDS011;701;52.526;13.408;2022-12-29T15:10:48;9.30;;;3.07;;
1412;SDS011;701;52.526;13.408;2022-12-29T15:13:22;6.13;;;2.70;;
1412;SDS011;701;52.526;13.408;2022-12-29T15:15:57;7.78;;;2.67;;
1412;SDS011;701;52.526;13.408;2022-12-29T15:18:29;5.95;;;2.20;;
1412;SDS011;701;52.526;13.408;2022-12-29T15:20:57;6.93;;;2.47;;
1412;SDS011;701;52.526;13.408;2022-12-29T15:23:25;10.35;;;2.20;;
1412;SDS011;701;52.526;13.408;2022-12-29T15:25:59;5.68;;;1.70;;
1412;SDS011;701;52.526;13.408;2022-12-29T15:28:51;4.72;;;1.50;;
1412;SDS011;701;52.526;13.408;2022-12-29T15:31:20;4.95;;;1.73;;
1412;SDS011;701;52.526;13.408;2022-12-29T15:33:49;7.10;;;1.50;;
1412;SDS011;701;52.526;13.408;2022-12-29T15:36:23;4.82;;;1.55;;
1412;SDS011;701;52.526;13.408;2022-12-29T15:38:51;6.05;;;1.85;;
1412;SDS011;701;52.526;13.408;2022-12-29T15:46:14;5.83;;;1.43;;
1412;SDS011;701;52.526;13.408;2022-12-29T15:48:41;7.13;;;1.83;;
1412;SDS011;701;52.526;13.408;2022-12-29T15:53:56;7.47;;;2.20;;
1412;SDS011;701;52.526;13.408;2022-12-29T15:56:22;7.13;;;2.20;;
1412;SDS011;701;52.526;13.408;2022-12-29T15:58:50;6.55;;;2.30;;
1412;SDS011;701;52.526;13.408;2022-12-29T16:01:33;8.07;;;2.95;;
1412;SDS011;701;52.526;13.408;2022-12-29T16:04:00;8.45;;;2.85;;
1412;SDS011;701;52.526;13.408;2022-12-29T16:06:33;7.90;;;2.57;;
1412;SDS011;701;52.526;13.408;2022-12-29T16:09:04;7.82;;;3.17;;
1412;SDS011;701;52.526;13.408;2022-12-29T16:11:51;7.65;;;2.58;;
1412;SDS011;701;52.526;13.408;2022-12-29T16:14:21;8.00;;;2.50;;
1412;SDS011;701;52.526;13.408;2022-12-29T16:16:53;10.68;;;2.70;;
1412;SDS011;701;52.526;13.408;2022-12-29T16:21:49;7.82;;;2.70;;
1412;SDS011;701;52.526;13.408;2022-12-29T16:24:16;7.82;;;2.35;;
1412;SDS011;701;52.526;13.408;2022-12-29T16:26:48;7.03;;;2.50;;
1412;SDS011;701;52.526;13.408;2022-12-29T16:29:19;5.50;;;2.00;;
1412;SDS011;701;52.526;13.408;2022-12-29T16:31:49;8.25;;;2.78;;
1412;SDS011;701;52.526;13.408;2022-12-29T16:39:30;6.45;;;2.00;;
1412;SDS011;701;52.526;13.408;2022-12-29T16:42:47;8.38;;;2.30;;
1412;SDS011;701;52.526;13.408;2022-12-29T16:50:31;6.53;;;1.92;;
1412;SDS011;701;52.526;13.408;2022-12-29T16:52:58;5.88;;;1.73;;
1412;SDS011;701;52.526;13.408;2022-12-29T16:55:24;7.35;;;2.08;;
1412;SDS011;701;52.526;13.408;2022-12-29T16:57:51;7.40;;;1.90;;
1412;SDS011;701;52.526;13.408;2022-12-29T17:00:22;6.43;;;1.85;;
1412;SDS011;701;52.526;13.408;2022-12-29T17:02:51;6.45;;;1.92;;
1412;SDS011;701;52.526;13.408;2022-12-29T17:05:19;5.60;;;1.50;;
1412;SDS011;701;52.526;13.408;2022-12-29T17:07:45;7.13;;;1.60;;
1412;SDS011;701;52.526;13.408;2022-12-29T17:10:12;6.57;;;1.60;;
1412;SDS011;701;52.526;13.408;2022-12-29T17:12:41;6.70;;;1.50;;
1412;SDS011;701;52.526;13.408;2022-12-29T17:15:21;6.60;;;1.42;;
1412;SDS011;701;52.526;13.408;2022-12-29T17:17:51;6.82;;;1.77;;
1412;SDS011;701;52.526;13.408;2022-12-29T17:20:20;5.45;;;1.60;;
1412;SDS011;701;52.526;13.408;2022-12-29T17:22:48;8.38;;;1.60;;
1412;SDS011;701;52.526;13.408;2022-12-29T17:25:28;7.13;;;1.58;;
1412;SDS011;701;52.526;13.408;2022-12-29T17:28:05;7.35;;;1.65;;
1412;SDS011;701;52.526;13.408;2022-12-29T17:30:45;7.30;;;1.90;;
1412;SDS011;701;52.526;13.408;2022-12-29T17:33:12;5.90;;;1.60;;
1412;SDS011;701;52.526;13.408;2022-12-29T17:35:41;5.22;;;1.50;;
1412;SDS011;701;52.526;13.408;2022-12-29T17:40:43;6.78;;;1.85;;
1412;SDS011;701;52.526;13.408;2022-12-29T17:43:08;6.47;;;1.98;;
1412;SDS011;701;52.526;13.408;2022-12-29T17:45:39;6.68;;;1.70;;
1412;SDS011;701;52.526;13.408;2022-12-29T17:48:23;8.10;;;1.20;;
1412;SDS011;701;52.526;13.408;2022-12-29T17:50:51;5.40;;;1.40;;
1412;SDS011;701;52.526;13.408;2022-12-29T17:53:22;5.22;;;1.60;;
1412;SDS011;701;52.526;13.408;2022-12-29T17:55:50;6.95;;;1.83;;
1412;SDS011;701;52.526;13.408;2022-12-29T17:58:17;4.72;;;1.40;;
1412;SDS011;701;52.526;13.408;2022-12-29T18:00:48;8.17;;;1.80;;
1412;SDS011;701;52.526;13.408;2022-12-29T18:03:17;5.75;;;1.63;;
1412;SDS011;701;52.526;13.408;2022-12-29T18:05:44;6.50;;;1.30;;
1412;SDS011;701;52.526;13.408;2022-12-29T18:08:11;4.95;;;1.40;;
1412;SDS011;701;52.526;13.408;2022-12-29T18:10:37;8.48;;;2.28;;
1412;SDS011;701;52.526;13.408;2022-12-29T18:13:03;6.47;;;1.83;;
1412;SDS011;701;52.526;13.408;2022-12-29T18:15:31;7.07;;;1.63;;
1412;SDS011;701;52.526;13.408;2022-12-29T18:18:12;6.13;;;1.60;;
1412;SDS011;701;52.526;13.408;2022-12-29T18:20:41;6.40;;;1.42;;
1412;SDS011;701;52.526;13.408;2022-12-29T18:23:18;6.30;;;1.55;;
1412;SDS011;701;52.526;13.408;2022-12-29T18:25:46;6.97;;;1.87;;
1412;SDS011;701;52.526;13.408;2022-12-29T18:28:18;6.22;;;1.92;;
1412;SDS011;701;52.526;13.408;2022-12-29T18:30:44;5.35;;;1.85;;
1412;SDS011;701;52.526;13.408;2022-12-29T18:33:13;6.35;;;2.00;;